Time;durP1;ratioP1;P1;durP2;ratioP2;P2;SDS_P1;SDS_P2;PMS_P1;PMS_P2;Temp;Humidity;BMP_temperature;BMP_pressure;BME280_temperature;BME280_humidity;BME280_pressure;Samples;Min_cycle;Max_cycle;Signal;HPM_P1;HPM_P2
2022/07/08 00:02:11;;;;;;;7.37;4.20;;;;;;;;;;5093490;28;20199;-92
2022/07/08 00:04:38;;;;;;;6.63;4.70;;;;;;;;;;5093071;28;20224;-91
2022/07/08 00:07:05;;;;;;;4.63;4.30;;;;;;;;;;5093265;28;20192;-92
2022/07/08 00:09:32;;;;;;;4.37;4.07;;;;;;;;;;5093036;28;20196;-91
2022/07/08 00:11:59;;;;;;;5.00;4.60;;;;;;;;;;5093209;28;20630;-91
2022/07/08 00:14:26;;;;;;;4.70;4.23;;;;;;;;;;5092893;28;20250;-94
2022/07/08 00:16:55;;;;;;;5.63;4.30;;;;;;;;;;5092925;28;20688;-92
2022/07/08 00:19:22;;;;;;;13.73;5.30;;;;;;;;;;5093167;28;20621;-91
2022/07/08 00:21:50;;;;;;;9.43;4.73;;;;;;;;;;5092899;28;20196;-91
2022/07/08 00:24:18;;;;;;;5.60;4.27;;;;;;;;;;5092827;28;20224;-91
2022/07/08 00:26:45;;;;;;;4.50;4.10;;;;;;;;;;5092827;28;20192;-91
2022/07/08 00:29:12;;;;;;;4.63;4.23;;;;;;;;;;5093178;28;20191;-92
2022/07/08 00:31:40;;;;;;;4.90;4.50;;;;;;;;;;5093163;28;20196;-92
2022/07/08 00:34:08;;;;;;;4.57;4.17;;;;;;;;;;5092978;28;20188;-92
2022/07/08 00:36:35;;;;;;;5.10;4.60;;;;;;;;;;5092821;28;20222;-91
2022/07/08 00:39:04;;;;;;;4.83;4.43;;;;;;;;;;5093127;28;20193;-94
2022/07/08 00:41:31;;;;;;;4.80;3.80;;;;;;;;;;5092785;28;20669;-93
2022/07/08 00:43:58;;;;;;;4.50;4.10;;;;;;;;;;5096601;28;20196;-92
2022/07/08 00:46:25;;;;;;;4.30;3.80;;;;;;;;;;5096570;28;20188;-92
2022/07/08 00:48:52;;;;;;;4.20;3.90;;;;;;;;;;5096795;28;20193;-93
2022/07/08 00:51:21;;;;;;;5.37;4.87;;;;;;;;;;5096592;28;20245;-92
2022/07/08 00:53:51;;;;;;;6.00;4.00;;;;;;;;;;5096815;28;20212;-92
2022/07/08 00:56:20;;;;;;;4.57;3.53;;;;;;;;;;5096755;28;20200;-93
2022/07/08 00:58:47;;;;;;;4.13;3.77;;;;;;;;;;5096622;28;20200;-92
2022/07/08 01:01:15;;;;;;;4.27;3.83;;;;;;;;;;5096494;28;20668;-93
2022/07/08 01:03:42;;;;;;;4.43;4.03;;;;;;;;;;5096184;28;20203;-92
2022/07/08 01:06:10;;;;;;;7.13;4.50;;;;;;;;;;5096466;28;20696;-91
2022/07/08 01:08:39;;;;;;;4.47;4.13;;;;;;;;;;5096092;28;20200;-94
2022/07/08 01:11:07;;;;;;;3.67;3.37;;;;;;;;;;5096233;28;20296;-93
2022/07/08 01:13:34;;;;;;;3.53;3.23;;;;;;;;;;5095932;28;20200;-93
2022/07/08 01:16:01;;;;;;;3.77;3.47;;;;;;;;;;5094134;28;20211;-91
2022/07/08 01:18:30;;;;;;;3.30;3.10;;;;;;;;;;5096804;28;20262;-92
2022/07/08 01:20:59;;;;;;;3.90;3.53;;;;;;;;;;5096061;28;20263;-96
2022/07/08 01:23:26;;;;;;;3.73;3.43;;;;;;;;;;5095829;28;20192;-92
2022/07/08 01:25:53;;;;;;;5.27;3.57;;;;;;;;;;5095875;28;20215;-94
2022/07/08 01:28:21;;;;;;;4.20;3.83;;;;;;;;;;5095978;28;20199;-94
2022/07/08 01:30:48;;;;;;;3.83;3.53;;;;;;;;;;5097321;28;20196;-96
2022/07/08 01:33:15;;;;;;;3.90;3.63;;;;;;;;;;5096096;28;20277;-94
2022/07/08 01:35:42;;;;;;;3.60;3.30;;;;;;;;;;5095609;28;20196;-94
2022/07/08 01:38:11;;;;;;;4.50;3.57;;;;;;;;;;5095598;28;20193;-94
2022/07/08 01:40:38;;;;;;;4.37;3.83;;;;;;;;;;5095662;28;20184;-94
2022/07/08 01:43:06;;;;;;;4.33;3.93;;;;;;;;;;5095447;28;20201;-96
2022/07/08 01:45:34;;;;;;;5.67;4.07;;;;;;;;;;5095736;28;20257;-94
2022/07/08 01:48:01;;;;;;;4.57;4.00;;;;;;;;;;5095511;28;20619;-96
2022/07/08 01:50:28;;;;;;;6.73;4.40;;;;;;;;;;5095401;28;20679;-95
2022/07/08 01:52:55;;;;;;;5.70;4.43;;;;;;;;;;5095277;28;20193;-95
2022/07/08 01:55:24;;;;;;;5.43;4.63;;;;;;;;;;5095605;28;20196;-94
2022/07/08 01:57:51;;;;;;;4.33;3.93;;;;;;;;;;5095508;28;20836;-95
2022/07/08 02:00:19;;;;;;;4.50;4.13;;;;;;;;;;5095918;28;20323;-95
2022/07/08 02:02:46;;;;;;;4.23;3.83;;;;;;;;;;5095408;28;20251;-96
2022/07/08 02:05:14;;;;;;;5.27;4.00;;;;;;;;;;5094957;28;20267;-95
2022/07/08 02:07:42;;;;;;;3.80;3.50;;;;;;;;;;5095046;28;20196;-96
2022/07/08 02:10:10;;;;;;;4.33;3.93;;;;;;;;;;5094988;28;20222;-94
2022/07/08 02:12:38;;;;;;;17.97;5.60;;;;;;;;;;5095007;28;20196;-96
2022/07/08 02:15:08;;;;;;;4.47;4.07;;;;;;;;;;5095155;28;20663;-91
2022/07/08 02:17:36;;;;;;;13.80;3.80;;;;;;;;;;5094913;28;20576;-92
2022/07/08 02:20:05;;;;;;;4.47;4.17;;;;;;;;;;5095427;28;20196;-95
2022/07/08 02:22:32;;;;;;;8.00;3.90;;;;;;;;;;5095095;28;20235;-92
2022/07/08 02:24:59;;;;;;;10.90;4.00;;;;;;;;;;5095219;28;20629;-94
2022/07/08 02:27:27;;;;;;;3.70;3.40;;;;;;;;;;5095034;28;20562;-92
2022/07/08 02:29:56;;;;;;;4.07;3.77;;;;;;;;;;5094608;28;20212;-94
2022/07/08 02:32:23;;;;;;;7.33;3.90;;;;;;;;;;5094723;28;20291;-95
2022/07/08 02:34:50;;;;;;;4.63;4.23;;;;;;;;;;5094492;28;20189;-96
2022/07/08 02:37:18;;;;;;;4.30;3.77;;;;;;;;;;5094888;28;20192;-94
2022/07/08 02:39:45;;;;;;;4.17;3.70;;;;;;;;;;5094473;28;20231;-89
2022/07/08 02:42:12;;;;;;;4.37;3.97;;;;;;;;;;5094469;28;20200;-89
2022/07/08 02:44:39;;;;;;;3.27;2.97;;;;;;;;;;5094220;28;20220;-90
2022/07/08 02:47:09;;;;;;;3.37;3.10;;;;;;;;;;5094358;28;20200;-89
2022/07/08 02:49:36;;;;;;;8.43;3.93;;;;;;;;;;5094357;28;20206;-88
2022/07/08 02:52:03;;;;;;;4.00;3.70;;;;;;;;;;5094296;28;20664;-89
2022/07/08 02:54:30;;;;;;;4.23;3.50;;;;;;;;;;5093960;28;20195;-88
2022/07/08 02:56:57;;;;;;;3.77;3.47;;;;;;;;;;5094153;28;20550;-88
2022/07/08 02:59:24;;;;;;;4.20;3.50;;;;;;;;;;5093624;28;20251;-88
2022/07/08 03:01:52;;;;;;;3.90;3.60;;;;;;;;;;5093851;28;20196;-88
2022/07/08 03:04:20;;;;;;;4.07;3.77;;;;;;;;;;5093591;28;20225;-88
2022/07/08 03:06:47;;;;;;;3.67;3.37;;;;;;;;;;5093879;28;20330;-88
2022/07/08 03:09:14;;;;;;;3.30;3.10;;;;;;;;;;5093664;28;20261;-87
2022/07/08 03:11:41;;;;;;;4.00;3.70;;;;;;;;;;5093642;28;20231;-88
2022/07/08 03:14:08;;;;;;;3.40;3.13;;;;;;;;;;5093593;28;20218;-87
2022/07/08 03:16:36;;;;;;;3.10;2.90;;;;;;;;;;5093534;28;20202;-89
2022/07/08 03:19:03;;;;;;;3.40;3.13;;;;;;;;;;5093818;28;20578;-89
2022/07/08 03:21:32;;;;;;;4.50;4.07;;;;;;;;;;5093514;28;20253;-89
2022/07/08 03:23:59;;;;;;;4.00;3.70;;;;;;;;;;5092531;28;20603;-86
2022/07/08 03:26:28;;;;;;;3.97;3.67;;;;;;;;;;5092568;28;20227;-86
2022/07/08 03:28:55;;;;;;;4.37;3.97;;;;;;;;;;5092745;28;20245;-85
2022/07/08 03:31:22;;;;;;;3.63;3.40;;;;;;;;;;5090402;28;20208;-86
2022/07/08 03:33:50;;;;;;;3.80;3.50;;;;;;;;;;5092686;28;20200;-85
2022/07/08 03:36:17;;;;;;;3.40;3.10;;;;;;;;;;5080811;28;20205;-86
2022/07/08 03:38:46;;;;;;;3.23;3.00;;;;;;;;;;5072371;28;20192;-86
2022/07/08 03:41:23;;;;;;;3.70;3.30;;;;;;;;;;5076164;28;20199;-86
2022/07/08 03:43:50;;;;;;;3.90;3.50;;;;;;;;;;5082299;28;20286;-85
2022/07/08 03:46:18;;;;;;;3.13;2.93;;;;;;;;;;5072194;28;20220;-87
2022/07/08 03:48:45;;;;;;;5.10;3.60;;;;;;;;;;5072641;28;20612;-87
2022/07/08 03:51:13;;;;;;;3.37;3.17;;;;;;;;;;5072353;28;20204;-86
2022/07/08 03:53:40;;;;;;;4.43;3.37;;;;;;;;;;5072438;28;20672;-86
2022/07/08 03:56:09;;;;;;;4.63;3.30;;;;;;;;;;5072233;28;20203;-86
2022/07/08 03:58:36;;;;;;;3.50;3.23;;;;;;;;;;5072189;28;20251;-86
2022/07/08 04:01:04;;;;;;;4.50;4.10;;;;;;;;;;5072083;28;20232;-87
2022/07/08 04:03:32;;;;;;;4.60;3.07;;;;;;;;;;5075392;28;20295;-87
2022/07/08 04:05:59;;;;;;;4.13;3.57;;;;;;;;;;5088959;28;20613;-85
2022/07/08 04:08:26;;;;;;;3.40;3.20;;;;;;;;;;5092779;28;20269;-86
2022/07/08 04:10:54;;;;;;;4.97;2.43;;;;;;;;;;5092250;28;20667;-86
2022/07/08 04:13:23;;;;;;;2.63;2.43;;;;;;;;;;5092521;28;20192;-86
2022/07/08 04:15:51;;;;;;;2.80;2.60;;;;;;;;;;5092758;28;20203;-86
2022/07/08 04:18:18;;;;;;;2.43;2.23;;;;;;;;;;5096543;28;20206;-85
2022/07/08 04:20:45;;;;;;;3.37;2.10;;;;;;;;;;5096267;28;20210;-87
2022/07/08 04:23:12;;;;;;;2.73;2.10;;;;;;;;;;5096882;28;20206;-87
2022/07/08 04:25:39;;;;;;;9.10;2.97;;;;;;;;;;5096582;28;20219;-87
2022/07/08 04:28:06;;;;;;;2.43;2.33;;;;;;;;;;5096971;28;20203;-88
2022/07/08 04:30:35;;;;;;;3.03;2.13;;;;;;;;;;5096546;28;20666;-87
2022/07/08 04:33:02;;;;;;;2.83;2.00;;;;;;;;;;5096785;28;20218;-87
2022/07/08 04:35:30;;;;;;;1.90;1.80;;;;;;;;;;5096428;28;20188;-87
2022/07/08 04:37:57;;;;;;;3.07;2.33;;;;;;;;;;5096412;28;20585;-86
2022/07/08 04:40:24;;;;;;;2.20;2.10;;;;;;;;;;5096731;28;20188;-86
2022/07/08 04:42:51;;;;;;;2.27;2.10;;;;;;;;;;5095887;28;20192;-86
2022/07/08 04:45:19;;;;;;;2.23;2.13;;;;;;;;;;5095906;28;20216;-87
2022/07/08 04:47:47;;;;;;;1.70;1.60;;;;;;;;;;5096613;28;20613;-87
2022/07/08 04:50:14;;;;;;;1.67;1.57;;;;;;;;;;5096232;28;20406;-87
2022/07/08 04:52:41;;;;;;;2.10;1.97;;;;;;;;;;5095719;28;20696;-87
2022/07/08 04:55:27;;;;;;;1.60;1.50;;;;;;;;;;5095706;28;20200;-87
2022/07/08 04:57:55;;;;;;;2.00;1.90;;;;;;;;;;5095869;28;20242;-87
2022/07/08 05:00:22;;;;;;;2.20;2.07;;;;;;;;;;5095673;28;20228;-86
2022/07/08 05:02:50;;;;;;;3.07;1.80;;;;;;;;;;5095630;28;20211;-86
2022/07/08 05:05:18;;;;;;;2.00;1.90;;;;;;;;;;5095232;28;20679;-86
2022/07/08 05:07:45;;;;;;;2.00;1.90;;;;;;;;;;5095418;28;20204;-86
2022/07/08 05:10:12;;;;;;;2.07;1.90;;;;;;;;;;5095444;28;20669;-86
2022/07/08 05:12:39;;;;;;;5.30;1.60;;;;;;;;;;5096072;28;20664;-86
2022/07/08 05:15:07;;;;;;;3.67;1.70;;;;;;;;;;5095649;28;20329;-87
2022/07/08 05:17:34;;;;;;;1.90;1.80;;;;;;;;;;5095250;28;20200;-87
2022/07/08 05:20:03;;;;;;;1.73;1.60;;;;;;;;;;5095658;28;20196;-87
2022/07/08 05:22:30;;;;;;;2.53;1.40;;;;;;;;;;5095287;28;20687;-86
2022/07/08 05:24:57;;;;;;;3.50;1.73;;;;;;;;;;5095366;28;20244;-86
2022/07/08 05:27:24;;;;;;;1.73;1.63;;;;;;;;;;5094902;28;20297;-87
2022/07/08 05:29:51;;;;;;;3.07;1.40;;;;;;;;;;5095456;28;20203;-86
2022/07/08 05:32:18;;;;;;;2.00;1.40;;;;;;;;;;5095176;28;20249;-86
2022/07/08 05:34:45;;;;;;;1.63;1.47;;;;;;;;;;5095474;28;20629;-86
2022/07/08 05:37:14;;;;;;;1.50;1.40;;;;;;;;;;5095111;28;20222;-86
2022/07/08 05:39:42;;;;;;;4.63;1.30;;;;;;;;;;5095569;28;20207;-87
2022/07/08 05:42:09;;;;;;;2.80;1.50;;;;;;;;;;5095489;28;20192;-86
2022/07/08 05:44:37;;;;;;;1.60;1.50;;;;;;;;;;5094580;28;20196;-86
2022/07/08 05:47:04;;;;;;;1.60;1.50;;;;;;;;;;5094970;28;20580;-86
2022/07/08 05:49:32;;;;;;;1.43;1.33;;;;;;;;;;5094995;28;20224;-86
2022/07/08 05:51:59;;;;;;;2.60;1.50;;;;;;;;;;5094902;28;20185;-86
2022/07/08 05:54:27;;;;;;;1.70;1.60;;;;;;;;;;5094735;28;20204;-87
2022/07/08 05:56:54;;;;;;;3.03;1.30;;;;;;;;;;5094746;28;20211;-88
2022/07/08 05:59:21;;;;;;;1.60;1.50;;;;;;;;;;5094691;28;20300;-85
2022/07/08 06:01:49;;;;;;;2.57;1.27;;;;;;;;;;5094867;28;20200;-86
2022/07/08 06:04:16;;;;;;;2.33;1.40;;;;;;;;;;5094588;28;20196;-86
2022/07/08 06:06:43;;;;;;;1.50;1.33;;;;;;;;;;5094772;28;20577;-87
2022/07/08 06:09:11;;;;;;;1.33;1.20;;;;;;;;;;5094555;28;20688;-87
2022/07/08 06:11:40;;;;;;;2.40;1.57;;;;;;;;;;5094665;28;20283;-88
2022/07/08 06:14:07;;;;;;;3.83;1.60;;;;;;;;;;5094416;28;20196;-87
2022/07/08 06:16:34;;;;;;;1.60;1.50;;;;;;;;;;5094700;28;20203;-87
2022/07/08 06:19:01;;;;;;;2.73;1.40;;;;;;;;;;5094667;28;20199;-87
2022/07/08 06:21:28;;;;;;;1.03;1.03;;;;;;;;;;5094667;28;20200;-87
2022/07/08 06:23:56;;;;;;;2.40;1.40;;;;;;;;;;5094714;28;20204;-87
2022/07/08 06:26:23;;;;;;;1.30;1.20;;;;;;;;;;5094254;28;20224;-87
2022/07/08 06:28:52;;;;;;;1.27;1.20;;;;;;;;;;5094715;28;20196;-87
2022/07/08 06:31:19;;;;;;;2.10;1.57;;;;;;;;;;5094138;28;20235;-88
2022/07/08 06:33:46;;;;;;;3.80;1.30;;;;;;;;;;5094378;28;20215;-88
2022/07/08 06:36:13;;;;;;;1.67;1.57;;;;;;;;;;5094210;28;20198;-88
2022/07/08 06:38:40;;;;;;;2.67;1.40;;;;;;;;;;5094251;28;20196;-88
2022/07/08 06:41:07;;;;;;;3.00;1.33;;;;;;;;;;5093115;28;20257;-88
2022/07/08 06:43:34;;;;;;;1.43;1.37;;;;;;;;;;5094164;28;20200;-87
2022/07/08 06:46:03;;;;;;;1.77;1.40;;;;;;;;;;5094048;28;20281;-87
2022/07/08 06:48:30;;;;;;;2.53;1.33;;;;;;;;;;5094193;28;20261;-89
2022/07/08 06:50:57;;;;;;;1.77;1.10;;;;;;;;;;5094313;28;20200;-87
2022/07/08 06:53:25;;;;;;;1.33;1.23;;;;;;;;;;5093772;28;20196;-87
2022/07/08 06:55:52;;;;;;;2.97;1.10;;;;;;;;;;5093787;28;20202;-88
2022/07/08 06:58:19;;;;;;;1.37;1.27;;;;;;;;;;5094095;28;20656;-87
2022/07/08 07:00:46;;;;;;;3.70;1.57;;;;;;;;;;5093475;28;20239;-87
2022/07/08 07:03:15;;;;;;;1.23;1.23;;;;;;;;;;5093979;28;20200;-88
2022/07/08 07:05:42;;;;;;;1.83;1.37;;;;;;;;;;5093631;28;20559;-87
2022/07/08 07:08:09;;;;;;;1.20;1.10;;;;;;;;;;5093899;28;20627;-88
2022/07/08 07:10:36;;;;;;;1.20;1.17;;;;;;;;;;5093848;28;20200;-88
2022/07/08 07:13:04;;;;;;;1.37;1.20;;;;;;;;;;5093808;28;20585;-88
2022/07/08 07:15:31;;;;;;;1.27;1.20;;;;;;;;;;5093458;28;20576;-88
2022/07/08 07:17:58;;;;;;;2.07;1.30;;;;;;;;;;5093626;28;20226;-87
2022/07/08 07:20:27;;;;;;;1.60;1.50;;;;;;;;;;5093762;28;20231;-87
2022/07/08 07:22:54;;;;;;;1.97;1.60;;;;;;;;;;5093729;28;20188;-87
2022/07/08 07:25:21;;;;;;;1.20;1.20;;;;;;;;;;5093216;28;20246;-88
2022/07/08 07:27:48;;;;;;;2.40;1.40;;;;;;;;;;5093200;28;20224;-87
2022/07/08 07:30:15;;;;;;;3.40;1.23;;;;;;;;;;5093529;28;20207;-88
2022/07/08 07:32:42;;;;;;;1.43;1.33;;;;;;;;;;5093541;28;20580;-87
2022/07/08 07:35:09;;;;;;;1.70;1.47;;;;;;;;;;5092983;28;20200;-87
2022/07/08 07:37:39;;;;;;;3.13;1.33;;;;;;;;;;5093599;28;20200;-88
2022/07/08 07:40:07;;;;;;;1.20;1.17;;;;;;;;;;5093340;28;20200;-89
2022/07/08 07:42:34;;;;;;;1.23;1.23;;;;;;;;;;5093357;28;20608;-88
2022/07/08 07:45:03;;;;;;;1.77;1.37;;;;;;;;;;5093022;28;20199;-88
2022/07/08 07:47:30;;;;;;;1.37;1.33;;;;;;;;;;5093092;28;20230;-88
2022/07/08 07:49:57;;;;;;;2.87;1.40;;;;;;;;;;5093042;28;20196;-88
2022/07/08 07:52:24;;;;;;;2.07;1.67;;;;;;;;;;5092543;28;20679;-88
2022/07/08 07:54:53;;;;;;;17.07;3.03;;;;;;;;;;5093408;28;20560;-88
2022/07/08 07:57:20;;;;;;;1.43;1.33;;;;;;;;;;5093305;28;20215;-87
2022/07/08 07:59:47;;;;;;;1.70;1.60;;;;;;;;;;5092875;28;20240;-88
2022/07/08 08:02:16;;;;;;;2.27;1.50;;;;;;;;;;5093077;28;20200;-88
2022/07/08 08:04:45;;;;;;;1.83;1.67;;;;;;;;;;5092652;28;20672;-88
2022/07/08 08:07:12;;;;;;;2.33;1.70;;;;;;;;;;5092949;28;20246;-87
2022/07/08 08:09:39;;;;;;;1.50;1.40;;;;;;;;;;5092815;28;20660;-88
2022/07/08 08:12:09;;;;;;;2.70;1.40;;;;;;;;;;5092806;28;20206;-88
2022/07/08 08:14:36;;;;;;;1.63;1.53;;;;;;;;;;5092586;28;20207;-88
2022/07/08 08:17:03;;;;;;;1.83;1.73;;;;;;;;;;5092695;28;20196;-88
2022/07/08 08:19:31;;;;;;;1.60;1.50;;;;;;;;;;5092993;28;20193;-89
2022/07/08 08:21:58;;;;;;;1.80;1.70;;;;;;;;;;5092686;28;20253;-88
2022/07/08 08:24:26;;;;;;;2.37;2.17;;;;;;;;;;5093054;28;20591;-88
2022/07/08 08:26:53;;;;;;;1.93;1.57;;;;;;;;;;5092767;28;20224;-88
2022/07/08 08:29:21;;;;;;;1.80;1.47;;;;;;;;;;5092613;28;20196;-89
2022/07/08 08:31:48;;;;;;;1.87;1.77;;;;;;;;;;5092533;28;20200;-88
2022/07/08 08:34:15;;;;;;;1.60;1.50;;;;;;;;;;5093087;28;20258;-87
2022/07/08 08:36:42;;;;;;;1.53;1.43;;;;;;;;;;5094380;28;20197;-87
2022/07/08 08:39:09;;;;;;;1.67;1.57;;;;;;;;;;5094626;28;20192;-87
2022/07/08 08:41:37;;;;;;;2.47;1.47;;;;;;;;;;5093835;28;20196;-88
2022/07/08 08:44:04;;;;;;;1.73;1.63;;;;;;;;;;5093908;28;20200;-89
2022/07/08 08:46:33;;;;;;;1.50;1.40;;;;;;;;;;5093746;28;20200;-88
2022/07/08 08:49:02;;;;;;;1.70;1.60;;;;;;;;;;5093093;28;20283;-88
2022/07/08 08:51:32;;;;;;;1.60;1.50;;;;;;;;;;5093883;28;20580;-88
2022/07/08 08:54:00;;;;;;;1.70;1.60;;;;;;;;;;5092496;28;20196;-89
2022/07/08 08:56:27;;;;;;;2.03;1.60;;;;;;;;;;5092682;28;20275;-88
2022/07/08 08:58:54;;;;;;;1.57;1.47;;;;;;;;;;5092015;28;20196;-88
2022/07/08 09:01:22;;;;;;;1.70;1.60;;;;;;;;;;5092428;28;20181;-88
2022/07/08 09:03:51;;;;;;;1.60;1.43;;;;;;;;;;5094853;28;20200;-87
2022/07/08 09:06:18;;;;;;;1.50;1.40;;;;;;;;;;5096026;28;20201;-88
2022/07/08 09:08:45;;;;;;;2.47;1.87;;;;;;;;;;5096046;28;20185;-87
2022/07/08 09:11:12;;;;;;;2.55;1.38;;;;;;;;;;5096075;28;20207;-88
2022/07/08 09:13:39;;;;;;;1.60;1.50;;;;;;;;;;5096079;28;20202;-88
2022/07/08 09:16:06;;;;;;;1.93;1.83;;;;;;;;;;5095827;28;20200;-88
2022/07/08 09:18:35;;;;;;;1.40;1.40;;;;;;;;;;5096712;28;20264;-89
2022/07/08 09:21:04;;;;;;;1.40;1.30;;;;;;;;;;5096269;28;20203;-88
2022/07/08 09:23:33;;;;;;;2.30;1.30;;;;;;;;;;5096159;28;20230;-90
2022/07/08 09:26:02;;;;;;;1.47;1.33;;;;;;;;;;5095634;28;20200;-88
2022/07/08 09:28:30;;;;;;;2.33;1.48;;;;;;;;;;5095409;28;20224;-88
2022/07/08 09:30:58;;;;;;;1.60;1.50;;;;;;;;;;5095251;28;20207;-88
2022/07/08 09:33:25;;;;;;;1.20;1.20;;;;;;;;;;5095738;28;20211;-88
2022/07/08 09:35:53;;;;;;;1.40;1.30;;;;;;;;;;5095638;28;20204;-88
2022/07/08 09:38:22;;;;;;;1.70;1.60;;;;;;;;;;5095705;28;20200;-87
2022/07/08 09:40:56;;;;;;;1.50;1.40;;;;;;;;;;5095662;28;20224;-88
2022/07/08 09:43:24;;;;;;;1.50;1.40;;;;;;;;;;5095595;28;20579;-87
2022/07/08 09:45:51;;;;;;;2.65;1.42;;;;;;;;;;5095328;28;20199;-88
2022/07/08 09:48:19;;;;;;;1.10;1.10;;;;;;;;;;5095353;28;20220;-88
2022/07/08 09:50:48;;;;;;;1.55;1.40;;;;;;;;;;5094976;28;20680;-87
2022/07/08 09:53:17;;;;;;;1.67;1.58;;;;;;;;;;5095138;28;20192;-88
2022/07/08 09:55:47;;;;;;;2.38;1.52;;;;;;;;;;5094801;28;20572;-88
2022/07/08 09:58:15;;;;;;;1.53;1.43;;;;;;;;;;5095194;28;20183;-88
2022/07/08 10:00:44;;;;;;;1.60;1.50;;;;;;;;;;5094956;28;20285;-89
2022/07/08 10:03:11;;;;;;;1.70;1.60;;;;;;;;;;5095052;28;20199;-88
2022/07/08 10:05:39;;;;;;;1.23;1.20;;;;;;;;;;5095134;28;20668;-89
2022/07/08 10:08:07;;;;;;;1.53;1.43;;;;;;;;;;5094888;28;20227;-88
2022/07/08 10:10:34;;;;;;;1.35;1.35;;;;;;;;;;5095269;28;20275;-88
2022/07/08 10:13:03;;;;;;;2.03;1.40;;;;;;;;;;5095284;28;20220;-88
2022/07/08 10:15:32;;;;;;;1.20;1.20;;;;;;;;;;5094806;28;20200;-88
2022/07/08 10:18:04;;;;;;;2.75;1.90;;;;;;;;;;5095007;28;20204;-89
2022/07/08 10:20:32;;;;;;;3.22;1.95;;;;;;;;;;5094941;28;20180;-89
2022/07/08 10:23:01;;;;;;;2.13;1.38;;;;;;;;;;5094735;28;20203;-89
2022/07/08 10:25:29;;;;;;;1.50;1.40;;;;;;;;;;5094641;28;20200;-88
2022/07/08 10:28:06;;;;;;;1.83;1.60;;;;;;;;;;5094454;28;20777;-89
2022/07/08 10:30:49;;;;;;;1.90;1.80;;;;;;;;;;5094571;28;20188;-88
2022/07/08 10:33:20;;;;;;;1.65;1.52;;;;;;;;;;5094408;28;20194;-89
2022/07/08 10:36:08;;;;;;;1.67;1.58;;;;;;;;;;5094465;28;20214;-89
2022/07/08 10:38:38;;;;;;;1.75;1.40;;;;;;;;;;5094705;28;20215;-90
2022/07/08 10:41:08;;;;;;;1.42;1.33;;;;;;;;;;5094595;28;20200;-89
2022/07/08 10:43:38;;;;;;;1.70;1.60;;;;;;;;;;5094368;28;20637;-89
2022/07/08 10:46:12;;;;;;;1.75;1.38;;;;;;;;;;5094504;28;20189;-89
2022/07/08 10:48:58;;;;;;;1.88;1.77;;;;;;;;;;5094168;28;20311;-89
2022/07/08 10:51:49;;;;;;;1.52;1.42;;;;;;;;;;5094352;28;20192;-89
2022/07/08 10:54:32;;;;;;;1.52;1.42;;;;;;;;;;5083704;28;20676;-89
2022/07/08 10:57:01;;;;;;;1.48;1.38;;;;;;;;;;5094410;28;20191;-90
2022/07/08 10:59:31;;;;;;;1.52;1.42;;;;;;;;;;5094138;28;20234;-89
2022/07/08 11:02:02;;;;;;;1.70;1.60;;;;;;;;;;5093918;28;20204;-89
2022/07/08 11:04:32;;;;;;;1.92;1.40;;;;;;;;;;5094633;28;20188;-89
2022/07/08 11:07:26;;;;;;;3.80;1.92;;;;;;;;;;5094355;28;20568;-89
2022/07/08 11:09:54;;;;;;;1.40;1.30;;;;;;;;;;5093768;28;20192;-89
2022/07/08 11:12:24;;;;;;;1.67;1.42;;;;;;;;;;5093829;28;20189;-91
2022/07/08 11:14:54;;;;;;;2.00;1.80;;;;;;;;;;5094400;28;20210;-90
2022/07/08 11:17:22;;;;;;;1.73;1.60;;;;;;;;;;5094006;28;20192;-91
2022/07/08 11:19:51;;;;;;;1.80;1.70;;;;;;;;;;5093780;28;20738;-89
2022/07/08 11:22:18;;;;;;;1.83;1.70;;;;;;;;;;5093928;28;20616;-90
2022/07/08 11:24:46;;;;;;;1.70;1.60;;;;;;;;;;5093466;28;20192;-89
2022/07/08 11:27:13;;;;;;;3.60;1.50;;;;;;;;;;5093196;28;20200;-91
2022/07/08 11:29:47;;;;;;;1.77;1.67;;;;;;;;;;5093514;28;20253;-91
2022/07/08 11:32:17;;;;;;;1.45;1.42;;;;;;;;;;5093945;28;20184;-90
2022/07/08 11:34:44;;;;;;;1.58;1.48;;;;;;;;;;5093864;28;20198;-90
2022/07/08 11:37:12;;;;;;;1.83;1.70;;;;;;;;;;5093450;28;20200;-91
2022/07/08 11:39:39;;;;;;;1.75;1.65;;;;;;;;;;5093190;28;20188;-91
2022/07/08 11:42:07;;;;;;;1.92;1.60;;;;;;;;;;5093624;28;20192;-89
2022/07/08 11:44:35;;;;;;;2.00;1.90;;;;;;;;;;5093267;28;20549;-89
2022/07/08 11:47:02;;;;;;;1.67;1.58;;;;;;;;;;5093571;28;20225;-90
2022/07/08 11:49:30;;;;;;;2.45;1.70;;;;;;;;;;5093243;28;20700;-90
2022/07/08 11:51:58;;;;;;;4.93;1.85;;;;;;;;;;5093370;28;20208;-90
2022/07/08 11:54:27;;;;;;;3.10;1.95;;;;;;;;;;5093063;28;20254;-90
2022/07/08 11:56:55;;;;;;;2.60;1.95;;;;;;;;;;5093147;28;20200;-91
2022/07/08 11:59:22;;;;;;;2.40;1.67;;;;;;;;;;5093220;28;20240;-90
2022/07/08 12:01:50;;;;;;;1.50;1.40;;;;;;;;;;5093113;28;20181;-90
2022/07/08 12:04:17;;;;;;;4.38;2.55;;;;;;;;;;5092965;28;20196;-90
2022/07/08 12:06:50;;;;;;;1.70;1.60;;;;;;;;;;5092900;28;20189;-90
2022/07/08 12:09:17;;;;;;;1.63;1.50;;;;;;;;;;5093009;28;20227;-90
2022/07/08 12:11:47;;;;;;;1.77;1.67;;;;;;;;;;5092925;28;20203;-92
2022/07/08 12:14:15;;;;;;;1.48;1.38;;;;;;;;;;5093096;28;20292;-90
2022/07/08 12:16:44;;;;;;;1.52;1.48;;;;;;;;;;5092895;28;20197;-90
2022/07/08 12:19:28;;;;;;;2.00;1.88;;;;;;;;;;5093113;28;20196;-91
2022/07/08 12:21:58;;;;;;;3.38;1.83;;;;;;;;;;5093093;28;20575;-90
2022/07/08 12:24:27;;;;;;;1.60;1.50;;;;;;;;;;5093414;28;20255;-90
2022/07/08 12:26:58;;;;;;;2.65;1.40;;;;;;;;;;5093215;28;20199;-90
2022/07/08 12:29:26;;;;;;;3.25;1.90;;;;;;;;;;5093120;28;20226;-90
2022/07/08 12:31:54;;;;;;;1.70;1.60;;;;;;;;;;5092949;28;20184;-90
2022/07/08 12:34:22;;;;;;;1.60;1.48;;;;;;;;;;5092971;28;20196;-90
2022/07/08 12:36:50;;;;;;;1.70;1.60;;;;;;;;;;5093521;28;20199;-89
2022/07/08 12:39:20;;;;;;;1.70;1.60;;;;;;;;;;5096661;28;20196;-91
2022/07/08 12:41:59;;;;;;;2.03;1.90;;;;;;;;;;5096912;28;20208;-89
2022/07/08 12:44:34;;;;;;;2.45;1.42;;;;;;;;;;5097017;28;20267;-91
2022/07/08 12:47:04;;;;;;;2.78;1.50;;;;;;;;;;5096575;28;20249;-89
2022/07/08 12:49:31;;;;;;;1.50;1.17;;;;;;;;;;5096422;28;20228;-90
2022/07/08 12:52:00;;;;;;;1.70;1.60;;;;;;;;;;5096622;28;20730;-90
2022/07/08 12:54:29;;;;;;;1.33;1.23;;;;;;;;;;5096942;28;20196;-89
2022/07/08 12:56:57;;;;;;;1.40;1.30;;;;;;;;;;5096617;28;20330;-90
2022/07/08 12:59:24;;;;;;;1.83;1.73;;;;;;;;;;5096245;28;20220;-90
2022/07/08 13:01:52;;;;;;;2.58;1.40;;;;;;;;;;5096519;28;20192;-90
2022/07/08 13:04:19;;;;;;;1.52;1.42;;;;;;;;;;5096356;28;20195;-90
2022/07/08 13:06:46;;;;;;;1.52;1.42;;;;;;;;;;5096191;28;20196;-90
2022/07/08 13:09:14;;;;;;;4.18;1.85;;;;;;;;;;5096364;28;20220;-89
2022/07/08 13:11:43;;;;;;;1.75;1.65;;;;;;;;;;5096462;28;20688;-90
2022/07/08 13:14:10;;;;;;;2.35;1.50;;;;;;;;;;5096299;28;20599;-91
2022/07/08 13:16:38;;;;;;;1.30;1.30;;;;;;;;;;5095981;28;20193;-91
2022/07/08 13:19:05;;;;;;;2.55;1.40;;;;;;;;;;5096092;28;20203;-90
2022/07/08 13:21:33;;;;;;;1.63;1.52;;;;;;;;;;5096181;28;20188;-92
2022/07/08 13:24:01;;;;;;;1.73;1.63;;;;;;;;;;5096224;28;20192;-91
2022/07/08 13:26:29;;;;;;;1.88;1.67;;;;;;;;;;5095881;28;20286;-90
2022/07/08 13:28:58;;;;;;;1.65;1.48;;;;;;;;;;5096290;28;20220;-90
2022/07/08 13:31:25;;;;;;;1.63;1.52;;;;;;;;;;5096007;28;20200;-90
2022/07/08 13:33:53;;;;;;;1.90;1.42;;;;;;;;;;5095520;28;20206;-90
2022/07/08 13:36:20;;;;;;;1.60;1.50;;;;;;;;;;5095586;28;20200;-88
2022/07/08 13:38:48;;;;;;;1.52;1.38;;;;;;;;;;5095856;28;20275;-90
2022/07/08 13:41:15;;;;;;;1.52;1.42;;;;;;;;;;5095912;28;20188;-91
2022/07/08 13:43:42;;;;;;;3.10;1.35;;;;;;;;;;5095318;28;20196;-90
2022/07/08 13:46:11;;;;;;;3.47;1.45;;;;;;;;;;5095785;28;20252;-91
2022/07/08 13:48:39;;;;;;;1.80;1.70;;;;;;;;;;5095218;28;20306;-90
2022/07/08 13:51:06;;;;;;;1.50;1.40;;;;;;;;;;5095729;28;20192;-90
2022/07/08 13:53:33;;;;;;;1.55;1.45;;;;;;;;;;5095589;28;20249;-89
2022/07/08 13:56:00;;;;;;;1.88;1.60;;;;;;;;;;5095269;28;20193;-90
2022/07/08 13:58:28;;;;;;;1.73;1.63;;;;;;;;;;5095289;28;20196;-90
2022/07/08 14:00:55;;;;;;;1.50;1.40;;;;;;;;;;5095020;28;20654;-90
2022/07/08 14:03:24;;;;;;;1.60;1.50;;;;;;;;;;5095055;28;20192;-91
2022/07/08 14:05:51;;;;;;;1.60;1.50;;;;;;;;;;5095199;28;20250;-90
2022/07/08 14:08:18;;;;;;;2.92;1.88;;;;;;;;;;5094988;28;20328;-90
2022/07/08 14:10:45;;;;;;;1.70;1.60;;;;;;;;;;5095291;28;20204;-90
2022/07/08 14:13:12;;;;;;;1.90;1.80;;;;;;;;;;5095881;28;20198;-90
2022/07/08 14:15:39;;;;;;;1.70;1.60;;;;;;;;;;5094927;28;20202;-90
2022/07/08 14:18:07;;;;;;;3.13;1.65;;;;;;;;;;5095214;28;20657;-90
2022/07/08 14:20:35;;;;;;;3.97;1.80;;;;;;;;;;5095195;28;20313;-91
2022/07/08 14:23:02;;;;;;;4.10;1.65;;;;;;;;;;5094692;28;20189;-89
2022/07/08 14:25:29;;;;;;;1.70;1.50;;;;;;;;;;5094757;28;20196;-90
2022/07/08 14:27:56;;;;;;;5.05;1.85;;;;;;;;;;5094714;28;20200;-90
2022/07/08 14:30:24;;;;;;;1.65;1.55;;;;;;;;;;5094439;28;20224;-90
2022/07/08 14:32:51;;;;;;;2.35;1.55;;;;;;;;;;5094835;28;20274;-91
2022/07/08 14:35:18;;;;;;;1.60;1.55;;;;;;;;;;5094691;28;20200;-90
2022/07/08 14:37:46;;;;;;;1.92;1.75;;;;;;;;;;5094454;28;20680;-91
2022/07/08 14:40:14;;;;;;;2.75;1.63;;;;;;;;;;5094394;28;20196;-90
2022/07/08 14:42:41;;;;;;;1.50;1.40;;;;;;;;;;5094719;28;20249;-90
2022/07/08 14:45:08;;;;;;;1.67;1.58;;;;;;;;;;5094624;28;20253;-90
2022/07/08 14:47:35;;;;;;;1.88;1.77;;;;;;;;;;5094492;28;20273;-88
2022/07/08 14:50:02;;;;;;;1.92;1.83;;;;;;;;;;5094326;28;20638;-90